Time;durP1;ratioP1;P1;durP2;ratioP2;P2;SDS_P1;SDS_P2;PMS_P1;PMS_P2;Temp;Humidity;BMP_temperature;BMP_pressure;BME280_temperature;BME280_humidity;BME280_pressure;Samples;Min_cycle;Max_cycle;Signal;HPM_P1;HPM_P2
2023/02/15 00:01:30;;;;;;;52.03;22.38;;;4.60;99.90;;;;;;5063263;28;20032;-71
2023/02/15 00:03:59;;;;;;;50.38;23.48;;;4.60;99.90;;;;;;5062741;28;20124;-71
2023/02/15 00:06:25;;;;;;;48.80;22.45;;;4.50;99.90;;;;;;5062958;28;20104;-72
2023/02/15 00:08:51;;;;;;;46.72;23.55;;;4.50;99.90;;;;;;5063331;28;20028;-71
2023/02/15 00:11:39;;;;;;;53.45;24.10;;;4.40;99.90;;;;;;5062973;28;20025;-73
2023/02/15 00:14:12;;;;;;;46.78;22.50;;;4.40;99.90;;;;;;5062001;28;20029;-73
2023/02/15 00:16:38;;;;;;;;;;;4.40;99.90;;;;;;5062646;28;20151;-72
2023/02/15 00:19:04;;;;;;;51.38;22.65;;;4.30;99.90;;;;;;5063187;28;19919;-72
2023/02/15 00:21:32;;;;;;;58.13;25.08;;;4.30;99.90;;;;;;5061398;28;20048;-74
2023/02/15 00:24:00;;;;;;;53.22;23.42;;;4.30;99.90;;;;;;5062885;28;20096;-73
2023/02/15 00:26:26;;;;;;;58.95;24.90;;;4.30;99.90;;;;;;5061722;28;20121;-73
2023/02/15 00:28:52;;;;;;;62.70;24.95;;;4.20;99.90;;;;;;5061623;28;20025;-72
2023/02/15 00:31:17;;;;;;;63.45;25.75;;;4.20;99.90;;;;;;5063140;28;20112;-74
2023/02/15 00:33:43;;;;;;;69.97;26.27;;;4.20;99.90;;;;;;5061817;28;20048;-72
2023/02/15 00:36:10;;;;;;;56.28;24.83;;;4.20;99.90;;;;;;5061609;28;20064;-73
2023/02/15 00:38:36;;;;;;;62.30;26.73;;;4.20;99.90;;;;;;5060941;28;20149;-72
2023/02/15 00:41:04;;;;;;;65.75;24.95;;;4.20;99.90;;;;;;5061495;28;20032;-72
2023/02/15 00:43:31;;;;;;;270.90;28.13;;;4.20;99.90;;;;;;5062063;28;20052;-73
2023/02/15 00:45:56;;;;;;;83.15;27.85;;;4.20;99.90;;;;;;5061409;28;20021;-72
2023/02/15 00:48:22;;;;;;;65.30;27.13;;;4.20;99.90;;;;;;5062720;28;20089;-72
2023/02/15 00:50:53;;;;;;;67.07;27.70;;;4.20;99.90;;;;;;5062271;28;20025;-73
2023/02/15 00:53:20;;;;;;;81.30;26.40;;;4.10;99.90;;;;;;5061206;28;20032;-72
2023/02/15 00:55:46;;;;;;;78.85;27.35;;;4.10;99.90;;;;;;5060839;28;20057;-73
2023/02/15 00:58:13;;;;;;;130.15;28.80;;;4.00;99.90;;;;;;5062892;28;20079;-72
2023/02/15 01:00:42;;;;;;;88.25;28.40;;;4.00;99.90;;;;;;5062533;28;20056;-72
2023/02/15 01:03:07;;;;;;;170.18;28.15;;;4.00;99.90;;;;;;5062338;28;20185;-73
2023/02/15 01:05:33;;;;;;;106.82;28.95;;;3.90;99.90;;;;;;5062187;28;20044;-72
2023/02/15 01:07:59;;;;;;;144.55;27.23;;;3.90;99.90;;;;;;5062198;28;20024;-72
2023/02/15 01:10:26;;;;;;;116.03;25.35;;;3.90;99.90;;;;;;5062189;28;20761;-72
2023/02/15 01:12:53;;;;;;;129.95;24.20;;;3.90;99.90;;;;;;5061634;28;20021;-74
2023/02/15 01:15:19;;;;;;;434.05;27.92;;;3.80;99.90;;;;;;5062364;28;20025;-73
2023/02/15 01:17:50;;;;;;;126.38;23.52;;;3.80;99.90;;;;;;5061835;28;20039;-72
2023/02/15 01:20:17;;;;;;;115.43;22.73;;;3.90;99.90;;;;;;5062128;28;20025;-73
2023/02/15 01:22:42;;;;;;;64.05;21.20;;;3.90;99.90;;;;;;5060266;28;20063;-72
2023/02/15 01:25:08;;;;;;;148.95;24.45;;;3.90;99.90;;;;;;5061185;28;20112;-72
2023/02/15 01:27:33;;;;;;;555.05;28.60;;;3.90;99.90;;;;;;5060283;28;20029;-72
2023/02/15 01:29:59;;;;;;;379.83;25.90;;;3.90;99.90;;;;;;5061905;28;20029;-73
2023/02/15 01:32:26;;;;;;;210.98;24.00;;;3.90;99.90;;;;;;5061980;28;20052;-72
2023/02/15 01:34:52;;;;;;;236.70;22.02;;;4.00;99.90;;;;;;5061444;28;20088;-73
2023/02/15 01:37:17;;;;;;;106.25;19.45;;;4.00;99.90;;;;;;5062014;28;20045;-72
2023/02/15 01:39:43;;;;;;;424.80;23.85;;;4.00;99.90;;;;;;5060384;28;20029;-71
2023/02/15 01:42:20;;;;;;;498.23;26.23;;;4.00;99.90;;;;;;5061858;28;20056;-74
2023/02/15 01:45:00;;;;;;;458.13;22.58;;;4.00;99.90;;;;;;5061839;28;20033;-74
2023/02/15 01:47:49;;;;;;;195.13;20.55;;;4.00;99.90;;;;;;5060104;28;20021;-73
2023/02/15 01:50:20;;;;;;;149.77;20.55;;;4.00;99.90;;;;;;5061965;28;20056;-73
2023/02/15 01:53:13;;;;;;;184.93;20.40;;;3.90;99.90;;;;;;5061854;28;20037;-72
2023/02/15 01:56:02;;;;;;;176.77;20.95;;;3.90;99.90;;;;;;5055602;28;20876;-72
2023/02/15 01:58:29;;;;;;;110.43;17.67;;;3.90;99.90;;;;;;5059229;28;20029;-72
2023/02/15 02:00:58;;;;;;;311.67;19.58;;;3.80;99.90;;;;;;5059730;28;20059;-72
2023/02/15 02:04:03;;;;;;;309.52;19.02;;;3.70;99.90;;;;;;5059902;28;20110;-72
2023/02/15 02:06:30;;;;;;;84.50;17.33;;;3.70;99.90;;;;;;5056515;28;20058;-73
2023/02/15 02:08:56;;;;;;;253.05;18.30;;;3.70;99.90;;;;;;5057923;28;20032;-72
2023/02/15 02:11:22;;;;;;;289.15;19.52;;;3.60;99.90;;;;;;5059666;28;20054;-72
2023/02/15 02:13:49;;;;;;;124.65;18.58;;;3.60;99.90;;;;;;5059777;28;20029;-73
2023/02/15 02:16:23;;;;;;;171.65;19.27;;;3.50;99.90;;;;;;5060011;28;20047;-72
2023/02/15 02:19:04;;;;;;;287.90;19.63;;;3.50;99.90;;;;;;5058627;28;20163;-73
2023/02/15 02:21:53;;;;;;;162.32;18.70;;;3.50;99.90;;;;;;5059604;28;20033;-73
2023/02/15 02:24:43;;;;;;;185.75;17.38;;;3.40;99.90;;;;;;5057923;28;20044;-71
2023/02/15 02:27:22;;;;;;;203.18;18.08;;;3.30;99.90;;;;;;5058557;28;20037;-73
2023/02/15 02:30:20;;;;;;;128.27;16.60;;;3.30;99.90;;;;;;5059402;28;20113;-73
2023/02/15 02:32:51;;;;;;;208.60;19.00;;;3.30;99.90;;;;;;5059587;28;20351;-72
2023/02/15 02:35:46;;;;;;;97.47;16.60;;;3.20;99.90;;;;;;5058152;28;20037;-74
2023/02/15 02:38:19;;;;;;;;;;;3.10;99.90;;;;;;5058747;28;20029;-72
2023/02/15 02:41:22;;;;;;;166.38;18.17;;;3.00;99.90;;;;;;5058887;28;19912;-74
2023/02/15 02:44:12;;;;;;;117.10;18.05;;;3.00;99.90;;;;;;5059151;28;20127;-72
2023/02/15 02:47:07;;;;;;;183.93;20.02;;;3.00;99.90;;;;;;5059282;28;20032;-73
2023/02/15 02:49:40;;;;;;;128.82;16.60;;;3.00;99.90;;;;;;5058200;28;20044;-73
2023/02/15 02:52:27;;;;;;;73.85;18.02;;;3.00;99.90;;;;;;5057326;28;20059;-74
2023/02/15 02:54:54;;;;;;;130.75;18.33;;;3.00;99.90;;;;;;5058977;28;20021;-73
2023/02/15 02:57:23;;;;;;;64.78;16.77;;;3.00;99.90;;;;;;5059355;28;20032;-73
2023/02/15 02:59:51;;;;;;;104.40;17.35;;;3.00;99.90;;;;;;5059420;28;20025;-71
2023/02/15 03:02:22;;;;;;;55.28;16.63;;;3.00;99.90;;;;;;5057656;28;20087;-73
2023/02/15 03:04:58;;;;;;;108.68;17.23;;;3.00;99.90;;;;;;5056075;28;20039;-72
2023/02/15 03:07:28;;;;;;;126.32;15.68;;;2.90;99.90;;;;;;5059353;28;20025;-72
2023/02/15 03:09:57;;;;;;;89.13;14.68;;;2.80;99.90;;;;;;5057533;28;20029;-73
2023/02/15 03:12:34;;;;;;;104.60;17.27;;;2.70;99.90;;;;;;5058794;28;20017;-72
2023/02/15 03:15:10;;;;;;;139.00;15.98;;;2.50;99.90;;;;;;5058151;28;20037;-71
2023/02/15 03:17:40;;;;;;;68.75;14.73;;;2.40;99.90;;;;;;5059156;28;20037;-73
2023/02/15 03:20:30;;;;;;;125.40;17.33;;;2.40;99.90;;;;;;5058931;28;20021;-72
2023/02/15 03:23:01;;;;;;;84.28;17.52;;;2.30;99.90;;;;;;5057338;28;20109;-72
2023/02/15 03:25:57;;;;;;;187.73;18.33;;;2.30;99.90;;;;;;5058271;28;20052;-74
2023/02/15 03:28:35;;;;;;;141.68;18.73;;;2.30;99.90;;;;;;5056410;28;20029;-73
2023/02/15 03:31:04;;;;;;;161.52;18.23;;;2.20;99.90;;;;;;5058910;28;20041;-74
2023/02/15 03:33:31;;;;;;;172.48;19.15;;;2.20;99.90;;;;;;5059048;28;20025;-73
2023/02/15 03:36:24;;;;;;;265.20;20.30;;;2.30;99.90;;;;;;5057756;28;20493;-72
2023/02/15 03:39:08;;;;;;;193.45;19.52;;;2.20;99.90;;;;;;5058657;28;20025;-75
2023/02/15 03:41:42;;;;;;;233.27;19.48;;;2.30;99.90;;;;;;5058853;28;20037;-71
2023/02/15 03:44:28;;;;;;;128.80;19.08;;;2.30;99.90;;;;;;5057784;28;20101;-73
2023/02/15 03:47:14;;;;;;;161.90;18.55;;;2.30;99.90;;;;;;5057871;28;20025;-73
2023/02/15 03:49:50;;;;;;;117.72;19.55;;;2.30;99.90;;;;;;5062276;28;20048;-73
2023/02/15 03:52:17;;;;;;;206.68;18.83;;;2.30;99.90;;;;;;5062494;28;20048;-73
2023/02/15 03:54:44;;;;;;;158.13;18.15;;;2.30;99.90;;;;;;5061097;28;20079;-74
2023/02/15 04:03:20;;;;;;;142.05;18.70;;;2.20;99.90;;;;;;5062161;28;20048;-73
2023/02/15 04:05:46;;;;;;;244.85;19.33;;;2.20;99.90;;;;;;5060695;28;20064;-75
2023/02/15 04:08:12;;;;;;;74.25;16.60;;;2.20;99.90;;;;;;5060089;28;20035;-73
2023/02/15 04:10:54;;;;;;;202.75;17.67;;;2.10;99.90;;;;;;5061815;28;20028;-74
2023/02/15 04:13:29;;;;;;;257.48;18.73;;;2.10;99.90;;;;;;5062050;28;20053;-73
2023/02/15 04:16:04;;;;;;;252.52;19.05;;;2.00;99.90;;;;;;5062169;28;20032;-74
2023/02/15 04:26:55;;;;;;;212.85;20.77;;;1.60;99.90;;;;;;5062499;28;20063;-74
2023/02/15 04:29:22;;;;;;;192.95;18.77;;;1.60;99.90;;;;;;5061835;28;20045;-74
2023/02/15 04:31:48;;;;;;;273.08;20.15;;;1.70;99.90;;;;;;5061992;28;20039;-73
2023/02/15 04:34:14;;;;;;;281.65;20.92;;;1.70;99.90;;;;;;5062243;28;20098;-74
2023/02/15 04:36:40;;;;;;;261.00;20.63;;;1.60;99.90;;;;;;5059558;28;20044;-73
2023/02/15 04:39:07;;;;;;;116.50;18.98;;;1.60;99.90;;;;;;5059256;28;20047;-73
2023/02/15 04:41:33;;;;;;;225.05;20.52;;;1.70;99.90;;;;;;5061587;28;20033;-73
2023/02/15 04:44:00;;;;;;;170.10;19.27;;;1.80;99.90;;;;;;5060568;28;20037;-73
2023/02/15 04:46:26;;;;;;;282.13;20.30;;;1.70;99.90;;;;;;5061528;28;20017;-73
2023/02/15 04:48:52;;;;;;;160.68;22.02;;;1.80;99.90;;;;;;5060564;28;20039;-73
2023/02/15 04:51:18;;;;;;;281.85;21.17;;;1.70;99.90;;;;;;5058628;28;20048;-74
2023/02/15 04:53:43;;;;;;;216.13;20.25;;;1.70;99.90;;;;;;5059835;28;20025;-74
2023/02/15 04:56:09;;;;;;;258.50;20.42;;;1.70;99.90;;;;;;5061741;28;20024;-73
2023/02/15 04:58:35;;;;;;;345.40;21.23;;;1.70;99.90;;;;;;5061753;28;20021;-72
2023/02/15 05:01:01;;;;;;;147.23;20.15;;;1.70;99.90;;;;;;5061011;28;20029;-74
2023/02/15 05:03:26;;;;;;;135.82;19.65;;;1.80;99.90;;;;;;5060005;28;20025;-76
2023/02/15 05:05:52;;;;;;;217.20;18.98;;;1.80;99.90;;;;;;5059979;28;20466;-74
2023/02/15 05:08:17;;;;;;;319.90;20.73;;;1.80;99.90;;;;;;5060178;28;20021;-74
2023/02/15 05:10:43;;;;;;;305.55;21.45;;;1.70;99.90;;;;;;5060256;28;20032;-74
2023/02/15 05:13:09;;;;;;;177.55;19.00;;;1.70;99.90;;;;;;5059533;28;20089;-74
2023/02/15 05:15:34;;;;;;;326.50;19.88;;;1.70;99.90;;;;;;5060715;28;20029;-75
2023/02/15 05:18:01;;;;;;;254.25;20.25;;;1.70;99.90;;;;;;5059691;28;20033;-74
2023/02/15 05:20:27;;;;;;;255.10;19.38;;;1.70;99.90;;;;;;5060946;28;21359;-73
2023/02/15 05:22:55;;;;;;;243.10;18.95;;;1.60;99.90;;;;;;5059110;28;20056;-74
2023/02/15 05:28:19;;;;;;;185.15;19.08;;;1.50;99.90;;;;;;5059581;28;20044;-73
2023/02/15 05:31:00;;;;;;;196.07;18.83;;;1.40;99.90;;;;;;5060561;28;20045;-74
2023/02/15 05:33:26;;;;;;;267.45;20.52;;;1.30;99.90;;;;;;5059211;28;20090;-74
2023/02/15 05:35:51;;;;;;;114.38;18.75;;;1.30;99.90;;;;;;5060264;28;20482;-75
2023/02/15 05:38:17;;;;;;;243.05;19.73;;;1.30;99.90;;;;;;5060603;28;20041;-74
2023/02/15 05:40:43;;;;;;;112.18;18.65;;;1.30;99.90;;;;;;5059365;28;20088;-74
2023/02/15 05:43:08;;;;;;;276.55;19.02;;;1.20;99.90;;;;;;5060528;28;20029;-75
2023/02/15 05:45:34;;;;;;;145.23;19.27;;;1.20;99.90;;;;;;5058349;28;20048;-75
2023/02/15 05:48:00;;;;;;;330.67;20.40;;;1.10;99.90;;;;;;5058845;28;20021;-74
2023/02/15 05:50:26;;;;;;;231.55;19.75;;;1.10;99.90;;;;;;5060367;28;20104;-75
2023/02/15 05:52:52;;;;;;;146.43;20.13;;;1.20;99.90;;;;;;5060613;28;20036;-76
2023/02/15 05:55:18;;;;;;;280.52;19.60;;;1.10;99.90;;;;;;5060363;28;20021;-74
2023/02/15 05:57:43;;;;;;;280.83;19.52;;;1.20;99.90;;;;;;5059408;28;20093;-75
2023/02/15 06:00:09;;;;;;;117.13;19.23;;;1.20;99.90;;;;;;5060750;28;20021;-75
2023/02/15 06:02:38;;;;;;;260.83;20.20;;;1.10;99.90;;;;;;5060567;28;20040;-74
2023/02/15 06:05:05;;;;;;;103.85;18.58;;;1.20;99.90;;;;;;5058845;28;20044;-74
2023/02/15 06:07:31;;;;;;;222.85;18.67;;;1.20;99.90;;;;;;5060602;28;20029;-74
2023/02/15 06:09:56;;;;;;;270.23;19.65;;;1.20;99.90;;;;;;5058760;28;20028;-75
2023/02/15 06:12:22;;;;;;;308.80;21.55;;;1.30;99.90;;;;;;5060196;28;20039;-75
2023/02/15 06:14:47;;;;;;;348.25;20.75;;;1.30;99.90;;;;;;5059145;28;20029;-75
2023/02/15 06:17:13;;;;;;;104.20;17.80;;;1.30;99.90;;;;;;5059633;28;20024;-76
2023/02/15 06:19:38;;;;;;;237.85;20.65;;;1.30;99.90;;;;;;5058793;28;20033;-73
2023/02/15 06:22:06;;;;;;;219.85;19.88;;;1.30;99.90;;;;;;5059325;28;20028;-74
2023/02/15 06:24:31;;;;;;;219.07;20.02;;;1.30;99.90;;;;;;5059263;28;20055;-74
2023/02/15 06:26:57;;;;;;;145.73;19.20;;;1.30;99.90;;;;;;5060272;28;20028;-73
2023/02/15 06:29:23;;;;;;;168.30;20.90;;;1.30;99.90;;;;;;5058295;28;20060;-73
2023/02/15 06:31:48;;;;;;;115.20;17.27;;;1.30;99.90;;;;;;5060470;28;20036;-72
2023/02/15 06:34:14;;;;;;;441.38;22.73;;;1.30;99.90;;;;;;5060346;28;20068;-73
2023/02/15 06:36:39;;;;;;;521.38;23.25;;;1.30;99.90;;;;;;5060723;28;20025;-73
2023/02/15 06:39:05;;;;;;;383.42;20.67;;;1.30;99.90;;;;;;5059462;28;20025;-74
2023/02/15 06:41:31;;;;;;;396.85;21.65;;;1.30;99.90;;;;;;5057731;28;20073;-72
2023/02/15 06:43:57;;;;;;;290.52;19.90;;;1.20;99.90;;;;;;5058832;28;20127;-72
2023/02/15 06:46:22;;;;;;;414.60;20.70;;;1.20;99.90;;;;;;5059756;28;20084;-73
2023/02/15 06:48:48;;;;;;;310.58;19.55;;;1.20;99.90;;;;;;5060409;28;20021;-74
2023/02/15 06:51:13;;;;;;;276.38;18.88;;;1.20;99.90;;;;;;5059241;28;20025;-75
2023/02/15 06:53:42;;;;;;;272.02;17.85;;;1.10;99.90;;;;;;5058976;28;20119;-72
2023/02/15 06:56:09;;;;;;;249.63;17.48;;;1.00;99.90;;;;;;5060491;28;20017;-72
2023/02/15 06:58:39;;;;;;;254.73;18.30;;;0.90;99.90;;;;;;5058912;28;20450;-75
2023/02/15 07:01:05;;;;;;;333.20;20.13;;;0.80;99.90;;;;;;5058125;28;20029;-74
2023/02/15 07:03:31;;;;;;;174.93;17.67;;;0.80;99.90;;;;;;5057430;28;20027;-73
2023/02/15 07:05:58;;;;;;;184.30;16.17;;;0.80;99.90;;;;;;5060253;28;20037;-74
2023/02/15 07:08:25;;;;;;;274.02;17.88;;;0.80;99.90;;;;;;5058284;28;20097;-73
2023/02/15 07:10:52;;;;;;;260.60;17.25;;;0.80;99.90;;;;;;5058761;28;20103;-73
2023/02/15 07:13:18;;;;;;;164.38;16.33;;;0.70;99.90;;;;;;5058371;28;20044;-73
2023/02/15 07:15:45;;;;;;;97.40;16.63;;;0.70;99.90;;;;;;5061494;28;20033;-73
2023/02/15 07:18:11;;;;;;;238.27;18.23;;;0.60;99.90;;;;;;5061258;28;20031;-72
2023/02/15 07:20:37;;;;;;;299.98;19.23;;;0.70;99.90;;;;;;5060562;28;20053;-72
2023/02/15 07:23:04;;;;;;;263.48;18.42;;;0.70;99.90;;;;;;5061129;28;20060;-72
2023/02/15 07:25:30;;;;;;;247.13;17.67;;;0.70;99.90;;;;;;5062282;28;20166;-73
2023/02/15 07:28:04;;;;;;;185.85;17.92;;;0.70;99.90;;;;;;5063115;28;20029;-72
2023/02/15 07:30:30;;;;;;;188.02;17.85;;;0.70;99.90;;;;;;5061052;28;20033;-72
2023/02/15 07:35:51;;;;;;;190.10;18.83;;;0.70;99.90;;;;;;5063218;28;20039;-72
2023/02/15 07:38:17;;;;;;;249.98;19.65;;;0.70;99.90;;;;;;5062663;28;20029;-72
2023/02/15 07:40:43;;;;;;;299.85;19.48;;;0.70;99.90;;;;;;5062098;28;20061;-74
2023/02/15 07:43:08;;;;;;;242.77;19.52;;;0.70;99.90;;;;;;5062380;28;20017;-72
2023/02/15 07:45:34;;;;;;;313.42;21.20;;;0.70;99.90;;;;;;5061850;28;20029;-72
2023/02/15 07:48:03;;;;;;;219.32;19.27;;;0.80;99.90;;;;;;5063695;28;20089;-72
2023/02/15 07:50:29;;;;;;;176.55;20.38;;;0.80;99.90;;;;;;5058373;28;20090;-72
2023/02/15 07:52:55;;;;;;;288.15;20.65;;;0.90;99.90;;;;;;5061387;28;20533;-72
2023/02/15 07:55:21;;;;;;;184.45;18.92;;;0.90;99.90;;;;;;5063525;28;20025;-72
2023/02/15 07:57:48;;;;;;;299.77;20.70;;;0.90;99.90;;;;;;5061883;28;20024;-72
2023/02/15 08:00:16;;;;;;;306.10;20.20;;;1.00;99.90;;;;;;5062345;28;20060;-73
2023/02/15 08:02:47;;;;;;;201.40;19.23;;;1.00;99.90;;;;;;5062475;28;20115;-71
2023/02/15 08:05:12;;;;;;;346.85;21.00;;;1.00;99.90;;;;;;5061710;28;20045;-72
2023/02/15 08:07:38;;;;;;;134.90;19.10;;;1.10;99.90;;;;;;5061970;28;20017;-73
2023/02/15 08:10:04;;;;;;;234.32;19.65;;;1.10;99.90;;;;;;5062219;28;20025;-72
2023/02/15 08:12:29;;;;;;;237.32;16.75;;;1.20;99.90;;;;;;5061945;28;20081;-72
2023/02/15 08:14:57;;;;;;;287.85;19.17;;;1.20;99.90;;;;;;5062029;28;20029;-71
2023/02/15 08:17:23;;;;;;;71.55;16.92;;;1.20;99.90;;;;;;5063145;28;20025;-72
2023/02/15 08:19:49;;;;;;;147.27;19.30;;;1.30;99.90;;;;;;5063328;28;20410;-73
2023/02/15 08:22:15;;;;;;;192.18;18.33;;;1.30;99.90;;;;;;5062889;28;20418;-73
2023/02/15 08:24:41;;;;;;;108.38;17.92;;;1.40;99.90;;;;;;5061363;28;20053;-72
2023/02/15 08:27:09;;;;;;;77.95;17.60;;;1.50;99.90;;;;;;5061961;28;20029;-72
2023/02/15 08:29:37;;;;;;;107.40;18.30;;;1.60;99.90;;;;;;5063097;28;20092;-72
2023/02/15 08:32:05;;;;;;;192.93;18.70;;;1.70;99.90;;;;;;5061680;28;20398;-73
2023/02/15 08:34:33;;;;;;;120.40;18.40;;;1.80;99.90;;;;;;5062112;28;20017;-73
2023/02/15 08:36:59;;;;;;;49.42;17.15;;;1.90;99.90;;;;;;5062041;28;20021;-73
2023/02/15 08:39:24;;;;;;;50.67;17.02;;;2.00;99.90;;;;;;5063255;28;20048;-71
2023/02/15 08:41:50;;;;;;;120.10;17.60;;;2.20;99.90;;;;;;5063164;28;20036;-72
2023/02/15 08:44:18;;;;;;;41.97;17.13;;;2.30;99.90;;;;;;5063348;28;20099;-73
2023/02/15 08:46:45;;;;;;;159.75;17.25;;;2.30;99.90;;;;;;5061543;28;20047;-73
2023/02/15 08:49:18;;;;;;;166.80;17.35;;;2.40;99.90;;;;;;5061372;28;20032;-72
2023/02/15 08:51:45;;;;;;;99.28;17.75;;;2.50;99.90;;;;;;5060288;28;20052;-72
2023/02/15 08:54:14;;;;;;;126.63;16.80;;;2.50;99.90;;;;;;5063249;28;20029;-72
2023/02/15 08:56:41;;;;;;;84.03;16.70;;;2.60;99.90;;;;;;5062648;28;20047;-71
2023/02/15 08:59:12;;;;;;;81.28;17.83;;;2.70;99.90;;;;;;5061767;28;20116;-73
2023/02/15 09:01:37;;;;;;;161.43;16.65;;;2.60;99.90;;;;;;5061492;28;20059;-71
2023/02/15 09:04:06;;;;;;;137.45;16.88;;;2.70;99.90;;;;;;5061314;28;20563;-70
2023/02/15 09:06:32;;;;;;;120.40;16.42;;;2.60;99.90;;;;;;5061264;28;20112;-71
2023/02/15 09:08:58;;;;;;;84.38;17.08;;;2.60;99.90;;;;;;5061501;28;20478;-71
2023/02/15 09:11:27;;;;;;;86.03;16.15;;;2.70;99.90;;;;;;5059674;28;20025;-72
2023/02/15 09:13:54;;;;;;;66.78;15.93;;;2.80;99.90;;;;;;5062384;28;20124;-72
2023/02/15 09:16:22;;;;;;;157.77;16.15;;;2.90;99.90;;;;;;5061157;28;20063;-73
2023/02/15 09:18:48;;;;;;;186.98;16.70;;;2.90;99.90;;;;;;5060808;28;20047;-71
2023/02/15 09:21:16;;;;;;;202.05;16.33;;;3.00;99.90;;;;;;5057793;28;20041;-73
2023/02/15 09:23:44;;;;;;;170.95;16.38;;;3.10;99.90;;;;;;5053789;28;20087;-72
2023/02/15 09:26:12;;;;;;;163.40;15.02;;;3.10;99.90;;;;;;5058454;28;20036;-72
2023/02/15 09:28:40;;;;;;;183.70;15.93;;;3.10;99.90;;;;;;5059172;28;20029;-72
2023/02/15 09:31:06;;;;;;;102.57;15.32;;;3.10;99.90;;;;;;5058840;28;20032;-71
2023/02/15 09:33:34;;;;;;;112.65;14.48;;;3.10;99.90;;;;;;5057743;28;20043;-72
2023/02/15 09:36:00;;;;;;;64.43;15.52;;;3.10;99.90;;;;;;5073968;28;20108;-71
2023/02/15 09:38:25;;;;;;;130.05;16.88;;;3.00;99.90;;;;;;5059973;28;20032;-72
2023/02/15 09:41:15;;;;;;;177.93;16.58;;;3.10;99.90;;;;;;5060813;28;20036;-72
2023/02/15 09:44:10;;;;;;;134.80;14.45;;;3.20;99.90;;;;;;5058639;28;20474;-73
2023/02/15 09:47:00;;;;;;;164.07;17.52;;;3.20;99.90;;;;;;5060861;28;20045;-71
2023/02/15 09:49:41;;;;;;;95.88;16.48;;;3.30;99.90;;;;;;5059396;28;20041;-72
2023/02/15 09:52:27;;;;;;;110.15;17.10;;;3.40;99.90;;;;;;5058814;28;20041;-71
2023/02/15 09:54:52;;;;;;;119.80;17.42;;;3.50;99.90;;;;;;5060245;28;20113;-71
2023/02/15 09:57:40;;;;;;;124.22;16.70;;;3.50;99.90;;;;;;5061946;28;20029;-71
2023/02/15 10:00:30;;;;;;;153.25;18.13;;;3.60;99.90;;;;;;5062005;28;20029;-72
2023/02/15 10:03:25;;;;;;;104.85;17.10;;;3.70;99.90;;;;;;5060731;28;20088;-70
2023/02/15 10:05:56;;;;;;;64.47;19.08;;;3.70;99.90;;;;;;5060131;28;20045;-73
2023/02/15 10:08:48;;;;;;;115.78;18.50;;;3.80;99.90;;;;;;5061162;28;20029;-74
2023/02/15 10:14:27;;;;;;;64.22;18.50;;;4.20;99.90;;;;;;5060356;28;20064;-70
2023/02/15 10:17:16;;;;;;;55.88;17.42;;;4.30;99.90;;;;;;5061439;28;20028;-70
2023/02/15 10:20:11;;;;;;;59.45;19.15;;;4.60;99.90;;;;;;5061336;28;20389;-71
2023/02/15 10:22:53;;;;;;;37.85;19.05;;;5.00;99.90;;;;;;5058585;28;20043;-71
2023/02/15 10:25:33;;;;;;;36.90;18.70;;;5.50;99.90;;;;;;5060636;28;20129;-72
2023/02/15 10:28:06;;;;;;;40.47;18.65;;;5.90;99.90;;;;;;5059651;28;20033;-72
2023/02/15 10:30:40;;;;;;;37.45;17.60;;;6.50;99.90;;;;;;5057773;28;20029;-73
2023/02/15 10:33:17;;;;;;;46.20;17.80;;;6.80;99.90;;;;;;5057751;28;20416;-72
2023/02/15 10:35:54;;;;;;;39.50;20.67;;;6.90;99.90;;;;;;5059605;28;20053;-71
2023/02/15 10:38:44;;;;;;;36.55;19.70;;;7.10;99.90;;;;;;5060626;28;20025;-73
2023/02/15 10:41:26;;;;;;;37.45;20.42;;;7.20;99.90;;;;;;5060108;28;20067;-72
2023/02/15 10:44:11;;;;;;;36.17;19.58;;;7.40;99.90;;;;;;5058012;28;20405;-72
2023/02/15 10:47:04;;;;;;;32.53;19.75;;;7.50;99.90;;;;;;5057899;28;20025;-70
2023/02/15 10:49:51;;;;;;;38.72;19.98;;;7.90;99.90;;;;;;5055374;28;20029;-73
2023/02/15 10:52:48;;;;;;;40.55;22.25;;;8.10;99.90;;;;;;5057502;28;20043;-73
2023/02/15 10:55:48;;;;;;;39.72;21.50;;;8.40;99.90;;;;;;5058998;28;20467;-71
2023/02/15 10:58:34;;;;;;;41.85;22.52;;;8.60;99.90;;;;;;5054993;28;20093;-73
2023/02/15 11:01:33;;;;;;;38.08;20.73;;;8.90;99.90;;;;;;5061752;28;20040;-71
2023/02/15 11:04:30;;;;;;;46.70;22.73;;;9.20;99.90;;;;;;5062439;28;20041;-72
2023/02/15 11:07:02;;;;;;;39.47;21.65;;;9.30;99.90;;;;;;5063300;28;20033;-71
2023/02/15 11:09:37;;;;;;;41.90;22.20;;;9.70;99.90;;;;;;5063202;28;20058;-72
2023/02/15 11:12:11;;;;;;;38.10;22.08;;;9.90;99.90;;;;;;5062980;28;20013;-73
2023/02/15 11:15:12;;;;;;;36.50;22.15;;;10.00;99.90;;;;;;5063364;28;20579;-71
2023/02/15 11:17:43;;;;;;;40.08;23.13;;;10.20;99.90;;;;;;5054621;28;20068;-73
2023/02/15 11:20:33;;;;;;;35.67;21.65;;;10.40;99.90;;;;;;5063992;28;20037;-72
2023/02/15 11:23:01;;;;;;;39.72;22.15;;;10.70;99.90;;;;;;5065135;28;20125;-72
2023/02/15 11:25:33;;;;;;;35.03;22.75;;;10.80;99.90;;;;;;5064819;28;20117;-72
2023/02/15 11:28:05;;;;;;;38.08;22.42;;;10.80;99.90;;;;;;5064223;28;20017;-72
2023/02/15 11:30:54;;;;;;;41.30;23.73;;;10.80;99.90;;;;;;5061193;28;20398;-73
2023/02/15 11:33:30;;;;;;;42.78;23.52;;;11.00;99.90;;;;;;5063402;28;20021;-74
2023/02/15 11:36:17;;;;;;;39.50;23.58;;;11.20;99.90;;;;;;5062238;28;20017;-73
2023/02/15 11:38:45;;;;;;;38.72;23.67;;;11.40;99.90;;;;;;5063910;28;20025;-71
2023/02/15 11:41:20;;;;;;;42.15;24.40;;;11.30;99.90;;;;;;5062253;28;20037;-72
2023/02/15 11:44:12;;;;;;;41.42;24.70;;;11.30;99.90;;;;;;5059837;28;20036;-72
2023/02/15 11:46:37;;;;;;;42.70;24.67;;;11.50;99.90;;;;;;5063581;28;20028;-73
2023/02/15 11:49:29;;;;;;;48.90;25.63;;;11.90;99.90;;;;;;5064353;28;20025;-72
2023/02/15 11:51:56;;;;;;;47.20;25.38;;;12.40;99.90;;;;;;5064224;28;20087;-73
2023/02/15 11:54:27;;;;;;;38.97;24.33;;;12.90;99.90;;;;;;5061493;28;20119;-72
2023/02/15 11:56:59;;;;;;;45.35;25.80;;;13.40;99.90;;;;;;5062708;28;20472;-73
2023/02/15 11:59:32;;;;;;;41.40;25.60;;;13.90;99.90;;;;;;5061316;28;20032;-73
2023/02/15 12:01:58;;;;;;;46.63;25.13;;;14.30;99.90;;;;;;5061372;28;20048;-74
2023/02/15 12:04:36;;;;;;;48.20;27.27;;;14.60;99.90;;;;;;5058447;28;20040;-74
2023/02/15 12:07:15;;;;;;;43.60;26.98;;;14.80;99.90;;;;;;5057724;28;20036;-73
2023/02/15 12:09:59;;;;;;;42.00;25.88;;;15.00;99.90;;;;;;5061333;28;20017;-72
2023/02/15 12:12:30;;;;;;;43.13;26.20;;;15.20;99.90;;;;;;5061915;28;20039;-73
2023/02/15 12:15:03;;;;;;;45.70;26.08;;;15.50;99.90;;;;;;5060713;28;20503;-73
2023/02/15 12:17:35;;;;;;;43.25;26.70;;;15.60;99.90;;;;;;5063207;28;20032;-72
2023/02/15 12:20:24;;;;;;;51.60;27.17;;;15.50;99.90;;;;;;5062603;28;20029;-72
2023/02/15 12:22:54;;;;;;;50.10;29.02;;;15.40;99.90;;;;;;5062994;28;20021;-73
2023/02/15 12:25:27;;;;;;;45.13;28.63;;;15.50;99.90;;;;;;5062448;28;20036;-72
2023/02/15 12:27:53;;;;;;;48.75;29.88;;;15.50;99.90;;;;;;5061701;28;20028;-73
2023/02/15 12:30:24;;;;;;;51.90;30.50;;;15.40;99.90;;;;;;5063856;28;20056;-72
2023/02/15 12:33:01;;;;;;;47.13;29.42;;;15.30;99.90;;;;;;5063437;28;20021;-71
2023/02/15 12:35:33;;;;;;;48.78;30.23;;;15.30;99.90;;;;;;5063423;28;20029;-72
2023/02/15 12:38:23;;;;;;;50.15;28.92;;;15.20;99.90;;;;;;5061845;28;20021;-73
2023/02/15 12:41:03;;;;;;;51.38;29.98;;;15.40;99.90;;;;;;5063320;28;20135;-73
2023/02/15 12:43:38;;;;;;;51.05;30.08;;;15.60;99.90;;;;;;5063731;28;20055;-73
2023/02/15 12:46:32;;;;;;;;;;;15.70;99.90;;;;;;5063148;28;20056;-74
2023/02/15 12:49:13;;;;;;;49.13;29.77;;;15.60;99.90;;;;;;5059559;28;19909;-72
2023/02/15 12:51:50;;;;;;;46.35;28.67;;;15.40;99.90;;;;;;5063524;28;20029;-74
2023/02/15 12:54:22;;;;;;;50.70;29.73;;;15.30;99.90;;;;;;5061765;28;20025;-74
2023/02/15 12:56:48;;;;;;;49.35;30.15;;;15.30;99.90;;;;;;5061626;28;20033;-72
2023/02/15 12:59:20;;;;;;;53.65;29.40;;;15.50;99.90;;;;;;5063421;28;20027;-73
2023/02/15 13:01:46;;;;;;;49.72;29.10;;;15.90;99.90;;;;;;5063343;28;20025;-72
2023/02/15 13:04:29;;;;;;;50.13;28.92;;;16.30;99.90;;;;;;5062941;28;20039;-70
2023/02/15 13:07:01;;;;;;;52.00;29.83;;;16.40;99.90;;;;;;5060740;28;20035;-72
2023/02/15 13:09:32;;;;;;;47.55;28.45;;;16.30;99.90;;;;;;5062527;28;20089;-70
2023/02/15 13:12:26;;;;;;;51.15;29.63;;;16.40;99.90;;;;;;5061927;28;20040;-72
2023/02/15 13:14:54;;;;;;;50.67;28.98;;;16.50;99.90;;;;;;5062243;28;20021;-73
2023/02/15 13:17:33;;;;;;;50.00;30.60;;;16.70;99.90;;;;;;5061533;28;20060;-73
2023/02/15 13:20:16;;;;;;;46.65;28.92;;;16.80;99.90;;;;;;5061918;28;20024;-73